createdAt,value
2022-10-13T00:01:13.682Z,16.60
2022-10-13T00:03:42.249Z,20.42
2022-10-13T00:06:11.184Z,25.65
2022-10-13T00:08:38.885Z,21.55
2022-10-13T00:11:16.226Z,21.67
2022-10-13T00:13:44.473Z,22.73
2022-10-13T00:16:14.575Z,16.15
2022-10-13T00:18:42.766Z,17.90
2022-10-13T00:21:12.234Z,13.38
2022-10-13T00:23:39.870Z,21.13
2022-10-13T00:26:09.906Z,18.20
2022-10-13T00:28:37.916Z,33.72
2022-10-13T00:31:15.069Z,23.55
2022-10-13T00:33:42.126Z,23.50
2022-10-13T00:36:09.293Z,15.32
2022-10-13T00:38:36.370Z,26.45
2022-10-13T00:41:03.501Z,16.58
2022-10-13T00:43:54.518Z,20.45
2022-10-13T00:46:23.093Z,23.42
2022-10-13T00:48:51.995Z,20.10
2022-10-13T00:51:22.957Z,18.73
2022-10-13T00:53:50.588Z,22.08
2022-10-13T00:56:21.381Z,21.90
2022-10-13T00:58:50.226Z,23.58
2022-10-13T01:01:17.500Z,20.83
2022-10-13T01:03:44.611Z,24.85
2022-10-13T01:06:13.095Z,23.88
2022-10-13T01:08:40.174Z,17.20
2022-10-13T01:11:32.270Z,23.48
2022-10-13T01:14:41.409Z,14.10
2022-10-13T01:17:32.978Z,19.83
2022-10-13T01:20:37.487Z,21.15
2022-10-13T01:23:29.440Z,19.75
2022-10-13T01:26:11.510Z,21.48
2022-10-13T01:29:11.292Z,18.30
2022-10-13T01:32:05.925Z,17.08
2022-10-13T01:34:35.946Z,18.27
2022-10-13T01:37:10.072Z,19.92
2022-10-13T01:39:58.032Z,14.68
2022-10-13T01:43:05.440Z,15.27
2022-10-13T01:45:56.055Z,17.60
2022-10-13T01:48:25.251Z,13.80
2022-10-13T01:50:54.537Z,15.63
2022-10-13T01:53:22.734Z,23.27
2022-10-13T01:56:00.570Z,15.45
2022-10-13T01:58:31.563Z,12.95
2022-10-13T02:01:37.037Z,17.92
2022-10-13T02:04:22.311Z,16.08
2022-10-13T02:06:54.295Z,21.27
2022-10-13T02:09:28.035Z,20.10
2022-10-13T02:14:30.349Z,14.65
2022-10-13T02:17:02.088Z,10.07
2022-10-13T02:19:30.373Z,13.65
2022-10-13T02:21:58.751Z,18.10
2022-10-13T02:24:25.986Z,19.55
2022-10-13T02:26:53.570Z,17.65
2022-10-13T02:29:21.209Z,19.48
2022-10-13T02:31:48.455Z,20.60
2022-10-13T02:34:15.864Z,18.65
2022-10-13T02:36:43.117Z,14.07
2022-10-13T02:39:13.125Z,20.42
2022-10-13T02:41:40.138Z,16.08
2022-10-13T02:44:07.722Z,19.30
2022-10-13T02:46:35.186Z,16.63
2022-10-13T02:49:02.165Z,20.13
2022-10-13T02:51:29.189Z,20.00
2022-10-13T02:53:56.308Z,17.95
2022-10-13T02:56:23.367Z,22.70
2022-10-13T02:58:50.340Z,21.58
2022-10-13T03:01:17.337Z,26.70
2022-10-13T03:03:44.360Z,21.27
2022-10-13T03:06:11.376Z,18.27
2022-10-13T03:08:39.530Z,20.65
2022-10-13T03:11:06.563Z,16.83
2022-10-13T03:13:33.941Z,17.98
2022-10-13T03:16:00.959Z,16.02
2022-10-13T03:18:28.158Z,16.58
2022-10-13T03:21:13.290Z,21.08
2022-10-13T03:23:40.667Z,13.82
2022-10-13T03:26:07.749Z,14.30
2022-10-13T03:28:34.893Z,11.07
2022-10-13T03:31:04.007Z,12.05
2022-10-13T03:33:31.079Z,13.43
2022-10-13T03:36:03.061Z,15.38
2022-10-13T03:38:31.396Z,12.52
2022-10-13T03:40:58.582Z,14.88
2022-10-13T03:43:25.715Z,17.00
2022-10-13T03:46:00.250Z,18.58
2022-10-13T03:48:27.791Z,13.15
2022-10-13T03:50:54.964Z,22.15
2022-10-13T03:53:22.695Z,13.20
2022-10-13T03:55:54.410Z,18.52
2022-10-13T03:58:22.470Z,14.18
2022-10-13T04:00:50.556Z,18.80
2022-10-13T04:03:17.612Z,20.23
2022-10-13T04:05:44.723Z,14.27
2022-10-13T04:08:12.645Z,12.82
2022-10-13T04:10:40.141Z,18.65
2022-10-13T04:13:07.440Z,18.15
2022-10-13T04:15:40.914Z,16.08
2022-10-13T04:18:09.317Z,14.35
2022-10-13T04:20:38.835Z,13.32
2022-10-13T04:23:06.142Z,20.67
2022-10-13T04:25:39.174Z,21.55
2022-10-13T04:28:07.597Z,14.68
2022-10-13T04:30:35.354Z,12.70
2022-10-13T04:33:02.545Z,14.65
2022-10-13T04:35:29.824Z,13.45
2022-10-13T04:37:59.879Z,17.92
2022-10-13T04:40:27.696Z,13.85
2022-10-13T04:42:54.717Z,11.80
2022-10-13T04:45:21.823Z,14.60
2022-10-13T04:47:48.908Z,21.35
2022-10-13T04:50:16.007Z,17.85
2022-10-13T04:52:43.137Z,11.93
2022-10-13T04:55:10.519Z,16.17
2022-10-13T04:57:37.983Z,16.77
2022-10-13T05:00:07.558Z,21.75
2022-10-13T05:02:38.192Z,17.92
2022-10-13T05:05:06.012Z,19.45
2022-10-13T05:07:33.133Z,20.73
2022-10-13T05:10:00.231Z,16.42
2022-10-13T05:12:27.268Z,17.45
2022-10-13T05:14:54.539Z,17.55
2022-10-13T05:17:21.518Z,17.20
2022-10-13T05:19:49.860Z,17.27
2022-10-13T05:22:17.147Z,18.77
2022-10-13T05:24:44.259Z,14.85
2022-10-13T05:27:13.329Z,12.65
2022-10-13T05:29:40.997Z,13.85
2022-10-13T05:32:08.855Z,15.57
2022-10-13T05:34:35.968Z,18.38
2022-10-13T05:37:03.043Z,19.38
2022-10-13T05:39:30.100Z,20.98
2022-10-13T05:41:57.064Z,19.17
2022-10-13T05:44:24.925Z,16.25
2022-10-13T05:46:52.034Z,14.80
2022-10-13T05:49:19.037Z,21.38
2022-10-13T05:51:50.972Z,17.92
2022-10-13T05:54:21.855Z,19.35
2022-10-13T05:56:54.858Z,17.85
2022-10-13T05:59:27.110Z,22.15
2022-10-13T06:01:55.754Z,16.55
2022-10-13T06:04:34.650Z,16.17
2022-10-13T06:07:01.928Z,16.70
2022-10-13T06:09:35.255Z,14.10
2022-10-13T06:12:02.440Z,13.82
2022-10-13T06:14:29.397Z,19.60
2022-10-13T06:16:56.551Z,17.90
2022-10-13T06:19:23.607Z,19.25
2022-10-13T06:21:51.016Z,17.92
2022-10-13T06:24:18.230Z,18.10
2022-10-13T06:26:45.235Z,16.70
2022-10-13T06:29:12.281Z,21.52
2022-10-13T06:31:39.533Z,16.60
2022-10-13T06:34:06.510Z,18.33
2022-10-13T06:36:33.535Z,18.38
2022-10-13T06:39:00.541Z,18.13
2022-10-13T06:41:27.525Z,19.63
2022-10-13T06:43:54.728Z,18.13
2022-10-13T06:46:21.833Z,18.35
2022-10-13T06:48:52.462Z,16.45
2022-10-13T06:51:19.686Z,16.10
2022-10-13T06:53:49.504Z,19.25
2022-10-13T06:56:16.504Z,17.08
2022-10-13T06:58:43.588Z,17.52
2022-10-13T07:01:13.227Z,20.80
2022-10-13T07:03:40.215Z,15.65
2022-10-13T07:06:08.241Z,18.55
2022-10-13T07:08:35.847Z,16.13
2022-10-13T07:11:15.282Z,16.42
2022-10-13T07:13:46.233Z,14.52
2022-10-13T07:16:14.592Z,15.18
2022-10-13T07:18:41.690Z,22.90
2022-10-13T07:21:08.762Z,14.63
2022-10-13T07:23:35.891Z,14.35
2022-10-13T07:26:08.250Z,14.82
2022-10-13T07:28:35.342Z,16.10
2022-10-13T07:31:08.524Z,14.55
2022-10-13T07:33:35.489Z,13.85
2022-10-13T07:36:02.458Z,11.93
2022-10-13T07:38:29.744Z,12.57
2022-10-13T07:40:56.709Z,11.88
2022-10-13T07:43:23.702Z,11.45
2022-10-13T07:45:50.714Z,12.40
2022-10-13T07:48:17.764Z,14.32
2022-10-13T07:50:44.883Z,13.57
2022-10-13T07:53:11.846Z,13.38
2022-10-13T07:55:38.848Z,19.15
2022-10-13T07:58:06.146Z,19.70
2022-10-13T08:00:33.134Z,23.55
2022-10-13T08:03:00.176Z,18.90
2022-10-13T08:05:27.294Z,12.45
2022-10-13T08:07:56.028Z,15.07
2022-10-13T08:10:25.533Z,14.38
2022-10-13T08:12:52.516Z,19.25
2022-10-13T08:15:19.525Z,14.73
2022-10-13T08:17:46.774Z,16.90
2022-10-13T08:20:14.137Z,16.17
2022-10-13T08:22:41.134Z,18.13
2022-10-13T08:25:08.676Z,18.25
2022-10-13T08:27:50.279Z,10.77
2022-10-13T08:30:19.433Z,18.52
2022-10-13T08:32:46.569Z,19.52
2022-10-13T08:35:13.810Z,22.10
2022-10-13T08:37:40.854Z,14.00
2022-10-13T08:40:11.728Z,17.27
2022-10-13T08:42:38.740Z,13.02
2022-10-13T08:45:35.834Z,21.88
2022-10-13T08:48:17.838Z,19.48
2022-10-13T08:50:48.505Z,17.13
2022-10-13T08:53:27.769Z,23.13
2022-10-13T08:56:23.258Z,13.15
2022-10-13T08:58:53.315Z,14.98
2022-10-13T09:01:25.622Z,12.00
2022-10-13T09:04:15.025Z,17.27
2022-10-13T09:06:47.339Z,16.85
2022-10-13T09:09:16.834Z,15.48
2022-10-13T09:11:46.765Z,18.98
2022-10-13T09:14:35.655Z,18.88
2022-10-13T09:17:23.860Z,22.45
2022-10-13T09:20:08.445Z,15.18
2022-10-13T09:22:39.893Z,18.25
2022-10-13T09:25:06.800Z,24.10
2022-10-13T09:27:46.617Z,24.27
2022-10-13T09:30:28.234Z,23.55
2022-10-13T09:33:12.153Z,25.95
2022-10-13T09:35:42.560Z,22.65
2022-10-13T09:38:21.030Z,19.15
2022-10-13T09:41:04.076Z,19.92
2022-10-13T09:43:41.535Z,23.17
2022-10-13T09:46:33.311Z,22.98
2022-10-13T09:49:38.089Z,26.23
2022-10-13T09:52:25.675Z,26.20
2022-10-13T09:54:56.419Z,28.05
2022-10-13T09:57:33.552Z,24.77
2022-10-13T10:00:11.466Z,23.98
2022-10-13T10:02:49.167Z,23.42
2022-10-13T10:05:24.056Z,24.83
2022-10-13T10:07:52.121Z,27.15
2022-10-13T10:10:35.179Z,26.98
2022-10-13T10:13:03.120Z,25.17
2022-10-13T10:15:56.336Z,20.05
2022-10-13T10:18:37.101Z,27.40
2022-10-13T10:21:17.252Z,26.50
2022-10-13T10:23:51.580Z,22.08
2022-10-13T10:26:54.152Z,21.60
2022-10-13T10:29:50.890Z,24.05
2022-10-13T10:32:45.509Z,19.00
2022-10-13T10:35:13.938Z,20.33
2022-10-13T10:38:07.152Z,30.17
2022-10-13T10:40:40.560Z,23.95
2022-10-13T10:43:35.192Z,29.63
2022-10-13T10:46:02.295Z,22.02
2022-10-13T10:48:37.139Z,24.50
2022-10-13T10:51:07.948Z,27.88
2022-10-13T10:53:43.753Z,29.63
2022-10-13T10:56:42.814Z,31.85
2022-10-13T10:59:40.439Z,27.58
2022-10-13T11:02:07.380Z,22.02
2022-10-13T11:04:42.169Z,19.52
2022-10-13T11:07:24.361Z,21.00
2022-10-13T11:09:54.364Z,22.35
2022-10-13T11:12:21.774Z,26.98
2022-10-13T11:14:55.234Z,26.92
2022-10-13T11:17:29.761Z,28.02
2022-10-13T11:19:58.503Z,25.65
2022-10-13T11:22:30.456Z,24.80
2022-10-13T11:25:01.596Z,31.33
2022-10-13T11:27:42.434Z,30.95
2022-10-13T11:30:40.266Z,31.02
2022-10-13T11:33:41.097Z,33.13
2022-10-13T11:36:36.143Z,25.67
2022-10-13T11:39:28.289Z,32.13
2022-10-13T11:42:20.327Z,31.48
2022-10-13T11:44:48.094Z,30.70
2022-10-13T11:47:45.757Z,27.80
2022-10-13T11:50:36.488Z,34.10
2022-10-13T11:53:12.656Z,30.30
2022-10-13T11:55:52.060Z,29.98
2022-10-13T11:58:28.065Z,29.38
2022-10-13T12:00:59.215Z,30.10
2022-10-13T12:03:33.087Z,39.08
2022-10-13T12:06:04.740Z,43.92
2022-10-13T12:08:35.666Z,36.45
2022-10-13T12:11:07.784Z,27.48
2022-10-13T12:13:36.948Z,35.30
2022-10-13T12:16:08.460Z,31.58
2022-10-13T12:18:40.936Z,25.45
2022-10-13T12:21:20.418Z,27.67
2022-10-13T12:23:51.811Z,24.00
2022-10-13T12:26:26.011Z,32.90
2022-10-13T12:28:56.877Z,29.13
2022-10-13T12:31:30.058Z,30.58
2022-10-13T12:34:01.892Z,35.00
2022-10-13T12:36:34.584Z,28.95
2022-10-13T12:39:05.407Z,33.67
2022-10-13T12:41:36.110Z,28.15
2022-10-13T12:44:06.614Z,26.92
2022-10-13T12:46:43.149Z,32.22
2022-10-13T12:49:23.044Z,26.80
2022-10-13T12:52:12.228Z,26.48
2022-10-13T12:54:47.438Z,21.83
2022-10-13T12:57:38.407Z,22.85
2022-10-13T13:00:20.984Z,25.40
2022-10-13T13:02:53.271Z,27.77
2022-10-13T13:05:34.125Z,22.55
2022-10-13T13:08:02.157Z,20.30
2022-10-13T13:10:29.297Z,27.05
2022-10-13T13:12:56.714Z,22.65
2022-10-13T13:15:33.261Z,21.30
2022-10-13T13:18:39.720Z,24.27
2022-10-13T13:21:09.567Z,21.92
2022-10-13T13:23:36.671Z,22.52
2022-10-13T13:26:15.475Z,27.75
2022-10-13T13:28:56.206Z,25.20
2022-10-13T13:31:25.925Z,19.42
2022-10-13T13:33:53.183Z,24.25
2022-10-13T13:36:23.315Z,27.45
2022-10-13T13:38:50.977Z,26.73
2022-10-13T13:41:18.455Z,24.52
2022-10-13T13:43:45.593Z,25.90
2022-10-13T13:46:22.051Z,28.80
2022-10-13T13:48:49.417Z,31.90
2022-10-13T13:51:17.285Z,39.13
2022-10-13T13:53:44.596Z,30.42
2022-10-13T13:56:19.192Z,30.52
2022-10-13T13:58:47.193Z,32.95
2022-10-13T14:01:14.867Z,35.83
2022-10-13T14:03:42.045Z,33.50
2022-10-13T14:06:09.542Z,28.95
2022-10-13T14:08:42.614Z,19.88
2022-10-13T14:13:37.299Z,23.13
2022-10-13T14:16:04.672Z,19.70
2022-10-13T14:18:32.128Z,24.42
2022-10-13T14:20:59.181Z,35.53
2022-10-13T14:23:26.223Z,34.42
2022-10-13T14:25:53.337Z,30.08
2022-10-13T14:28:20.386Z,27.70
2022-10-13T14:30:47.442Z,29.92
2022-10-13T14:33:19.414Z,28.88
2022-10-13T14:35:47.239Z,31.65
2022-10-13T14:38:14.898Z,28.27
2022-10-13T14:40:42.562Z,22.38
2022-10-13T14:43:09.731Z,26.73
2022-10-13T14:45:36.833Z,26.05
2022-10-13T14:48:03.990Z,25.73
2022-10-13T14:50:30.990Z,24.60
2022-10-13T14:52:57.992Z,27.42
2022-10-13T14:55:25.024Z,25.98
2022-10-13T14:57:52.087Z,26.33
2022-10-13T15:00:19.093Z,32.13
2022-10-13T15:02:46.214Z,26.42
2022-10-13T15:05:13.166Z,23.45
2022-10-13T15:07:41.379Z,30.23
2022-10-13T15:10:08.921Z,31.65
2022-10-13T15:12:36.080Z,23.35
2022-10-13T15:15:03.980Z,27.80
2022-10-13T15:17:31.462Z,31.60
2022-10-13T15:19:58.607Z,25.60
2022-10-13T15:22:25.995Z,31.10
2022-10-13T15:24:53.102Z,30.30
2022-10-13T15:27:20.120Z,26.63
2022-10-13T15:29:47.117Z,28.65
2022-10-13T15:32:18.615Z,30.13
2022-10-13T15:34:46.089Z,23.85
2022-10-13T15:37:13.516Z,27.25
2022-10-13T15:39:40.580Z,24.17
2022-10-13T15:42:07.593Z,20.90
2022-10-13T15:44:57.389Z,24.27
2022-10-13T15:47:21.654Z,29.80
2022-10-13T15:49:48.611Z,31.20
2022-10-13T15:52:15.640Z,25.27
2022-10-13T15:54:42.738Z,24.08
2022-10-13T15:57:09.719Z,31.80
2022-10-13T15:59:36.648Z,31.02
2022-10-13T16:02:03.725Z,28.92
2022-10-13T16:04:34.957Z,27.73
2022-10-13T16:09:31.557Z,27.42
2022-10-13T16:11:58.563Z,35.25
2022-10-13T16:14:25.692Z,29.50
2022-10-13T16:16:52.718Z,28.65
2022-10-13T16:19:19.723Z,24.92
2022-10-13T16:21:47.216Z,28.58
2022-10-13T16:24:14.301Z,34.63
2022-10-13T16:26:41.296Z,24.13
2022-10-13T16:29:08.291Z,22.77
2022-10-13T16:31:35.497Z,29.42
2022-10-13T16:34:02.733Z,24.88
2022-10-13T16:36:29.850Z,24.63
2022-10-13T16:38:56.889Z,26.88
2022-10-13T16:41:24.423Z,32.58
2022-10-13T16:43:51.467Z,27.02
2022-10-13T16:46:20.459Z,28.88
2022-10-13T16:48:48.180Z,24.55
2022-10-13T16:51:23.572Z,29.98
2022-10-13T16:53:52.986Z,20.83
2022-10-13T16:56:22.613Z,26.73
2022-10-13T16:58:54.484Z,26.42
2022-10-13T17:01:22.108Z,21.80
2022-10-13T17:03:50.823Z,19.60
2022-10-13T17:06:20.042Z,25.27
2022-10-13T17:08:47.171Z,23.83
2022-10-13T17:11:20.654Z,21.27
2022-10-13T17:16:14.928Z,18.40
2022-10-13T17:18:42.479Z,26.88
2022-10-13T17:21:13.771Z,21.52
2022-10-13T17:23:45.908Z,22.60
2022-10-13T17:26:16.599Z,34.67
2022-10-13T17:28:44.400Z,26.38
2022-10-13T17:31:20.307Z,26.88
2022-10-13T17:33:48.299Z,26.17
2022-10-13T17:36:24.388Z,22.48
2022-10-13T17:38:52.500Z,23.02
2022-10-13T17:41:20.358Z,21.75
2022-10-13T17:43:47.931Z,16.13
2022-10-13T17:46:36.406Z,22.42
2022-10-13T17:49:05.263Z,15.95
2022-10-13T17:51:32.242Z,22.60
2022-10-13T17:54:00.475Z,23.25
2022-10-13T17:56:28.064Z,24.40
2022-10-13T17:58:55.424Z,30.08
2022-10-13T18:01:25.612Z,23.45
2022-10-13T18:03:55.846Z,27.63
2022-10-13T18:06:23.715Z,21.35
2022-10-13T18:08:51.190Z,20.27
2022-10-13T18:11:21.806Z,23.50
2022-10-13T18:13:49.153Z,22.33
2022-10-13T18:16:22.091Z,22.42
2022-10-13T18:18:50.396Z,33.60
2022-10-13T18:21:19.898Z,36.20
2022-10-13T18:23:47.061Z,28.83
2022-10-13T18:26:16.887Z,31.52
2022-10-13T18:28:45.137Z,33.78
2022-10-13T18:31:16.347Z,27.98
2022-10-13T18:33:43.737Z,23.27
2022-10-13T18:36:13.981Z,30.98
2022-10-13T18:38:41.073Z,30.60
2022-10-13T18:41:08.275Z,31.42
2022-10-13T18:43:35.310Z,22.83
2022-10-13T18:46:03.368Z,21.45
2022-10-13T18:48:31.002Z,29.02
2022-10-13T18:51:03.403Z,24.77
2022-10-13T18:53:32.085Z,25.27
2022-10-13T18:56:07.183Z,24.33
2022-10-13T18:58:36.569Z,30.33
2022-10-13T19:01:15.005Z,22.50
2022-10-13T19:03:42.095Z,22.08
2022-10-13T19:06:11.287Z,30.15
2022-10-13T19:08:38.313Z,25.95
2022-10-13T19:11:15.479Z,28.50
2022-10-13T19:13:42.845Z,19.45
2022-10-13T19:16:10.517Z,20.80
2022-10-13T19:18:38.216Z,20.55
2022-10-13T19:21:05.403Z,24.95
2022-10-13T19:23:33.063Z,17.15
2022-10-13T19:26:00.303Z,18.60
2022-10-13T19:28:27.458Z,19.05
2022-10-13T19:30:54.818Z,22.60
2022-10-13T19:33:21.892Z,23.27
2022-10-13T19:35:54.316Z,22.88
2022-10-13T19:38:21.454Z,21.95
2022-10-13T19:40:49.981Z,19.35
2022-10-13T19:43:17.577Z,22.25
2022-10-13T19:45:47.051Z,25.98
2022-10-13T19:48:14.510Z,21.38
2022-10-13T19:50:42.073Z,19.30
2022-10-13T19:53:10.377Z,29.35
2022-10-13T19:55:42.059Z,28.23
2022-10-13T19:58:09.151Z,28.52
2022-10-13T20:00:36.390Z,22.50
2022-10-13T20:03:05.110Z,29.50
2022-10-13T20:05:32.324Z,24.75
2022-10-13T20:07:59.387Z,25.35
2022-10-13T20:10:26.395Z,20.42
2022-10-13T20:12:53.456Z,16.27
2022-10-13T20:15:20.487Z,17.27
2022-10-13T20:17:47.483Z,18.95
2022-10-13T20:20:16.812Z,18.40
2022-10-13T20:22:47.105Z,21.13
2022-10-13T20:25:15.580Z,24.95
2022-10-13T20:27:42.586Z,23.38
2022-10-13T20:30:10.091Z,17.60
2022-10-13T20:32:37.146Z,17.23
2022-10-13T20:35:05.893Z,23.25
2022-10-13T20:37:33.495Z,16.35
2022-10-13T20:40:00.555Z,20.38
2022-10-13T20:42:27.549Z,28.67
2022-10-13T20:44:54.544Z,26.55
2022-10-13T20:47:22.028Z,25.02
2022-10-13T20:49:49.233Z,17.42
2022-10-13T20:52:16.442Z,29.10
2022-10-13T20:54:48.427Z,18.90
2022-10-13T20:57:15.872Z,26.70
2022-10-13T20:59:42.807Z,16.33
2022-10-13T21:02:13.446Z,30.00
2022-10-13T21:04:40.618Z,28.05
2022-10-13T21:07:07.644Z,23.83
2022-10-13T21:09:36.143Z,25.38
2022-10-13T21:12:03.235Z,23.92
2022-10-13T21:14:30.291Z,26.30
2022-10-13T21:16:57.303Z,16.63
2022-10-13T21:19:24.244Z,20.13
2022-10-13T21:21:51.328Z,17.88
2022-10-13T21:24:18.439Z,24.75
2022-10-13T21:26:45.513Z,21.70
2022-10-13T21:29:12.733Z,20.77
2022-10-13T21:31:39.836Z,23.77
2022-10-13T21:34:06.914Z,24.67
2022-10-13T21:36:34.430Z,24.58
2022-10-13T21:39:05.535Z,18.77
2022-10-13T21:41:32.551Z,21.17
2022-10-13T21:43:59.623Z,22.60
2022-10-13T21:46:29.399Z,23.88
2022-10-13T21:48:58.837Z,22.17
2022-10-13T21:51:29.769Z,24.42
2022-10-13T21:53:59.433Z,26.05
2022-10-13T21:56:27.537Z,23.90
2022-10-13T21:58:55.143Z,19.52
2022-10-13T22:01:22.959Z,22.58
2022-10-13T22:03:54.127Z,19.13
2022-10-13T22:06:21.234Z,15.02
2022-10-13T22:08:52.990Z,17.73
2022-10-13T22:11:20.946Z,14.77
2022-10-13T22:13:48.219Z,15.50
2022-10-13T22:16:23.547Z,13.32
2022-10-13T22:18:55.098Z,13.50
2022-10-13T22:21:25.336Z,12.25
2022-10-13T22:23:52.357Z,16.05
2022-10-13T22:26:19.612Z,18.15
2022-10-13T22:28:48.766Z,18.02
2022-10-13T22:31:16.824Z,18.70
2022-10-13T22:33:44.684Z,14.93
2022-10-13T22:36:20.479Z,19.38
2022-10-13T22:38:49.356Z,17.60
2022-10-13T22:41:18.457Z,18.15
2022-10-13T22:43:49.440Z,15.23
2022-10-13T22:46:18.641Z,17.40
2022-10-13T22:48:45.657Z,19.38
2022-10-13T22:51:22.165Z,17.45
2022-10-13T22:53:50.184Z,20.02
2022-10-13T22:56:20.309Z,17.20
2022-10-13T22:58:56.219Z,20.63
2022-10-13T23:01:24.170Z,16.70
2022-10-13T23:03:52.892Z,17.38
2022-10-13T23:06:22.891Z,21.35
2022-10-13T23:08:50.209Z,17.77
2022-10-13T23:11:18.337Z,28.00
2022-10-13T23:13:45.810Z,21.58
2022-10-13T23:16:21.996Z,18.60
2022-10-13T23:18:49.280Z,20.38
2022-10-13T23:21:19.273Z,18.15
2022-10-13T23:23:46.883Z,23.38
2022-10-13T23:26:17.831Z,16.50
2022-10-13T23:28:45.190Z,18.60
2022-10-13T23:31:14.518Z,18.42
2022-10-13T23:33:42.085Z,25.80
2022-10-13T23:36:11.469Z,19.40
2022-10-13T23:38:38.915Z,23.23
2022-10-13T23:41:09.022Z,21.38
2022-10-13T23:43:36.323Z,24.23
2022-10-13T23:46:04.094Z,29.00
2022-10-13T23:48:31.577Z,24.30
2022-10-13T23:50:58.665Z,19.73
2022-10-13T23:53:25.766Z,26.15
2022-10-13T23:55:52.774Z,31.42
2022-10-13T23:58:19.744Z,26.20
